sensor_id;sensor_type;location;lat;lon;timestamp;temperature;humidity
23751;DHT22;12055;52.098;13.176;2022-09-09T00:01:15;13.70;99.90
23751;DHT22;12055;52.098;13.176;2022-09-09T00:09:17;13.50;99.90
23751;DHT22;12055;52.098;13.176;2022-09-09T00:11:47;13.50;99.90
23751;DHT22;12055;52.098;13.176;2022-09-09T00:14:33;13.50;99.90
23751;DHT22;12055;52.098;13.176;2022-09-09T00:17:06;13.40;99.90
23751;DHT22;12055;52.098;13.176;2022-09-09T00:19:59;13.40;99.90
23751;DHT22;12055;52.098;13.176;2022-09-09T00:22:29;13.50;99.90
23751;DHT22;12055;52.098;13.176;2022-09-09T00:25:02;13.40;99.90
23751;DHT22;12055;52.098;13.176;2022-09-09T00:27:40;13.40;99.90
23751;DHT22;12055;52.098;13.176;2022-09-09T00:32:44;13.30;99.90
23751;DHT22;12055;52.098;13.176;2022-09-09T00:37:35;13.30;99.90
23751;DHT22;12055;52.098;13.176;2022-09-09T00:40:16;13.30;99.90
23751;DHT22;12055;52.098;13.176;2022-09-09T00:42:44;13.30;99.90
23751;DHT22;12055;52.098;13.176;2022-09-09T00:47:44;13.40;99.90
23751;DHT22;12055;52.098;13.176;2022-09-09T00:55:49;13.40;99.90
23751;DHT22;12055;52.098;13.176;2022-09-09T00:58:16;13.40;99.90
23751;DHT22;12055;52.098;13.176;2022-09-09T01:00:45;13.30;99.90
23751;DHT22;12055;52.098;13.176;2022-09-09T01:08:52;13.30;99.90
23751;DHT22;12055;52.098;13.176;2022-09-09T01:11:27;13.30;99.90
23751;DHT22;12055;52.098;13.176;2022-09-09T01:14:32;13.40;99.90
23751;DHT22;12055;52.098;13.176;2022-09-09T01:17:11;13.50;99.90
23751;DHT22;12055;52.098;13.176;2022-09-09T01:19:50;13.60;99.90
23751;DHT22;12055;52.098;13.176;2022-09-09T01:27:48;13.70;99.90
23751;DHT22;12055;52.098;13.176;2022-09-09T01:30:16;13.70;99.90
23751;DHT22;12055;52.098;13.176;2022-09-09T01:32:51;13.70;99.90
23751;DHT22;12055;52.098;13.176;2022-09-09T01:35:42;13.80;99.90
23751;DHT22;12055;52.098;13.176;2022-09-09T01:38:09;13.90;99.90
23751;DHT22;12055;52.098;13.176;2022-09-09T01:40:35;13.90;99.90
23751;DHT22;12055;52.098;13.176;2022-09-09T01:43:02;13.90;99.90
23751;DHT22;12055;52.098;13.176;2022-09-09T01:45:28;13.90;99.90
23751;DHT22;12055;52.098;13.176;2022-09-09T01:47:54;14.00;99.90
23751;DHT22;12055;52.098;13.176;2022-09-09T01:50:21;14.00;99.90
23751;DHT22;12055;52.098;13.176;2022-09-09T01:52:52;14.00;99.90
23751;DHT22;12055;52.098;13.176;2022-09-09T01:55:23;14.00;99.90
23751;DHT22;12055;52.098;13.176;2022-09-09T02:00:18;14.10;99.90
23751;DHT22;12055;52.098;13.176;2022-09-09T02:03:00;14.00;99.90
23751;DHT22;12055;52.098;13.176;2022-09-09T02:05:55;14.00;99.90
23751;DHT22;12055;52.098;13.176;2022-09-09T02:08:29;14.00;99.90
23751;DHT22;12055;52.098;13.176;2022-09-09T02:11:18;14.00;99.90
23751;DHT22;12055;52.098;13.176;2022-09-09T02:13:47;13.90;99.90
23751;DHT22;12055;52.098;13.176;2022-09-09T02:16:37;13.90;99.90
23751;DHT22;12055;52.098;13.176;2022-09-09T02:19:18;13.90;99.90
23751;DHT22;12055;52.098;13.176;2022-09-09T02:21:49;13.90;99.90
23751;DHT22;12055;52.098;13.176;2022-09-09T02:24:15;13.90;99.90
23751;DHT22;12055;52.098;13.176;2022-09-09T02:26:42;13.80;99.90
23751;DHT22;12055;52.098;13.176;2022-09-09T02:29:24;13.80;99.90
23751;DHT22;12055;52.098;13.176;2022-09-09T02:31:52;13.80;99.90
23751;DHT22;12055;52.098;13.176;2022-09-09T02:34:21;13.80;99.90
23751;DHT22;12055;52.098;13.176;2022-09-09T02:36:50;13.70;99.90
23751;DHT22;12055;52.098;13.176;2022-09-09T02:39:18;13.70;99.90
23751;DHT22;12055;52.098;13.176;2022-09-09T02:41:44;13.70;99.90
23751;DHT22;12055;52.098;13.176;2022-09-09T02:44:11;13.70;99.90
23751;DHT22;12055;52.098;13.176;2022-09-09T02:49:24;13.60;99.90
23751;DHT22;12055;52.098;13.176;2022-09-09T02:52:02;13.60;99.90
23751;DHT22;12055;52.098;13.176;2022-09-09T02:54:33;13.60;99.90
23751;DHT22;12055;52.098;13.176;2022-09-09T02:57:11;13.60;99.90
23751;DHT22;12055;52.098;13.176;2022-09-09T02:59:38;13.60;99.90
23751;DHT22;12055;52.098;13.176;2022-09-09T03:02:04;13.60;99.90
23751;DHT22;12055;52.098;13.176;2022-09-09T03:04:30;13.50;99.90
23751;DHT22;12055;52.098;13.176;2022-09-09T03:06:57;13.50;99.90
23751;DHT22;12055;52.098;13.176;2022-09-09T03:09:23;13.50;99.90
23751;DHT22;12055;52.098;13.176;2022-09-09T03:11:49;13.50;99.90
23751;DHT22;12055;52.098;13.176;2022-09-09T03:14:15;13.40;99.90
23751;DHT22;12055;52.098;13.176;2022-09-09T03:16:41;13.40;99.90
23751;DHT22;12055;52.098;13.176;2022-09-09T03:19:08;13.40;99.90
23751;DHT22;12055;52.098;13.176;2022-09-09T03:21:34;13.40;99.90
23751;DHT22;12055;52.098;13.176;2022-09-09T03:24:00;13.40;99.90
23751;DHT22;12055;52.098;13.176;2022-09-09T03:26:28;13.40;99.90
23751;DHT22;12055;52.098;13.176;2022-09-09T03:28:54;13.40;99.90
23751;DHT22;12055;52.098;13.176;2022-09-09T03:31:19;13.40;99.90
23751;DHT22;12055;52.098;13.176;2022-09-09T03:33:45;13.30;99.90
23751;DHT22;12055;52.098;13.176;2022-09-09T03:36:11;13.30;99.90
23751;DHT22;12055;52.098;13.176;2022-09-09T03:38:36;13.30;99.90
23751;DHT22;12055;52.098;13.176;2022-09-09T03:41:02;13.30;99.90
23751;DHT22;12055;52.098;13.176;2022-09-09T03:43:28;13.30;99.90
23751;DHT22;12055;52.098;13.176;2022-09-09T03:45:54;13.30;99.90
23751;DHT22;12055;52.098;13.176;2022-09-09T03:48:22;13.30;99.90
23751;DHT22;12055;52.098;13.176;2022-09-09T03:50:50;13.30;99.90
23751;DHT22;12055;52.098;13.176;2022-09-09T03:53:17;13.30;99.90
23751;DHT22;12055;52.098;13.176;2022-09-09T03:55:50;13.30;99.90
23751;DHT22;12055;52.098;13.176;2022-09-09T03:58:18;13.30;99.90
23751;DHT22;12055;52.098;13.176;2022-09-09T04:00:55;13.30;99.90
23751;DHT22;12055;52.098;13.176;2022-09-09T04:03:22;13.20;99.90
23751;DHT22;12055;52.098;13.176;2022-09-09T04:05:50;13.10;99.90
23751;DHT22;12055;52.098;13.176;2022-09-09T04:08:16;13.10;99.90
23751;DHT22;12055;52.098;13.176;2022-09-09T04:10:42;13.10;99.90
23751;DHT22;12055;52.098;13.176;2022-09-09T04:13:09;13.00;99.90
23751;DHT22;12055;52.098;13.176;2022-09-09T04:15:35;13.00;99.90
23751;DHT22;12055;52.098;13.176;2022-09-09T04:18:00;12.90;99.90
23751;DHT22;12055;52.098;13.176;2022-09-09T04:20:26;12.80;99.90
23751;DHT22;12055;52.098;13.176;2022-09-09T04:22:51;12.80;99.90
23751;DHT22;12055;52.098;13.176;2022-09-09T04:25:17;12.70;99.90
23751;DHT22;12055;52.098;13.176;2022-09-09T04:27:42;12.70;99.90
23751;DHT22;12055;52.098;13.176;2022-09-09T04:30:08;12.60;99.90
23751;DHT22;12055;52.098;13.176;2022-09-09T04:32:34;12.50;99.90
23751;DHT22;12055;52.098;13.176;2022-09-09T04:35:01;12.50;99.90
23751;DHT22;12055;52.098;13.176;2022-09-09T04:37:26;12.50;99.90
23751;DHT22;12055;52.098;13.176;2022-09-09T04:39:52;12.50;99.90
23751;DHT22;12055;52.098;13.176;2022-09-09T04:42:17;12.50;99.90
23751;DHT22;12055;52.098;13.176;2022-09-09T04:44:44;12.50;99.90
23751;DHT22;12055;52.098;13.176;2022-09-09T04:47:10;12.50;99.90
23751;DHT22;12055;52.098;13.176;2022-09-09T04:49:35;12.50;99.90
23751;DHT22;12055;52.098;13.176;2022-09-09T04:52:02;12.60;99.90
23751;DHT22;12055;52.098;13.176;2022-09-09T04:54:28;12.70;99.90
23751;DHT22;12055;52.098;13.176;2022-09-09T04:56:53;12.80;99.90
23751;DHT22;12055;52.098;13.176;2022-09-09T04:59:20;12.80;99.90
23751;DHT22;12055;52.098;13.176;2022-09-09T05:01:45;12.80;99.90
23751;DHT22;12055;52.098;13.176;2022-09-09T05:04:11;12.90;99.90
23751;DHT22;12055;52.098;13.176;2022-09-09T05:06:36;12.90;99.90
23751;DHT22;12055;52.098;13.176;2022-09-09T05:09:02;12.90;99.90
23751;DHT22;12055;52.098;13.176;2022-09-09T05:11:29;13.00;99.90
23751;DHT22;12055;52.098;13.176;2022-09-09T05:13:55;13.00;99.90
23751;DHT22;12055;52.098;13.176;2022-09-09T05:16:22;13.10;99.90
23751;DHT22;12055;52.098;13.176;2022-09-09T05:18:48;13.10;99.90
23751;DHT22;12055;52.098;13.176;2022-09-09T05:21:18;13.20;99.90
23751;DHT22;12055;52.098;13.176;2022-09-09T05:23:45;13.30;99.90
23751;DHT22;12055;52.098;13.176;2022-09-09T05:26:15;13.30;99.90
23751;DHT22;12055;52.098;13.176;2022-09-09T05:28:41;13.40;99.90
23751;DHT22;12055;52.098;13.176;2022-09-09T05:31:09;13.40;99.90
23751;DHT22;12055;52.098;13.176;2022-09-09T05:33:36;13.40;99.90
23751;DHT22;12055;52.098;13.176;2022-09-09T05:36:04;13.50;99.90
23751;DHT22;12055;52.098;13.176;2022-09-09T05:38:31;13.50;99.90
23751;DHT22;12055;52.098;13.176;2022-09-09T05:41:01;13.60;99.90
23751;DHT22;12055;52.098;13.176;2022-09-09T05:43:28;13.70;99.90
23751;DHT22;12055;52.098;13.176;2022-09-09T05:46:01;13.80;99.90
23751;DHT22;12055;52.098;13.176;2022-09-09T05:48:28;14.00;99.90
23751;DHT22;12055;52.098;13.176;2022-09-09T05:50:54;14.50;99.90
23751;DHT22;12055;52.098;13.176;2022-09-09T05:53:20;14.90;99.90
23751;DHT22;12055;52.098;13.176;2022-09-09T05:55:46;15.30;99.90
23751;DHT22;12055;52.098;13.176;2022-09-09T05:58:11;15.60;99.90
23751;DHT22;12055;52.098;13.176;2022-09-09T06:00:37;16.00;99.90
23751;DHT22;12055;52.098;13.176;2022-09-09T06:03:03;16.40;99.90
23751;DHT22;12055;52.098;13.176;2022-09-09T06:05:29;16.70;99.90
23751;DHT22;12055;52.098;13.176;2022-09-09T06:07:55;17.10;99.90
23751;DHT22;12055;52.098;13.176;2022-09-09T06:10:21;17.50;99.90
23751;DHT22;12055;52.098;13.176;2022-09-09T06:12:46;17.80;99.90
23751;DHT22;12055;52.098;13.176;2022-09-09T06:15:12;18.00;99.90
23751;DHT22;12055;52.098;13.176;2022-09-09T06:17:37;17.80;99.90
23751;DHT22;12055;52.098;13.176;2022-09-09T06:20:04;17.70;99.90
23751;DHT22;12055;52.098;13.176;2022-09-09T06:22:30;17.80;99.90
23751;DHT22;12055;52.098;13.176;2022-09-09T06:24:55;18.00;99.90
23751;DHT22;12055;52.098;13.176;2022-09-09T06:27:21;18.40;99.90
23751;DHT22;12055;52.098;13.176;2022-09-09T06:29:47;18.40;99.90
23751;DHT22;12055;52.098;13.176;2022-09-09T06:32:13;18.60;99.90
23751;DHT22;12055;52.098;13.176;2022-09-09T06:34:39;18.70;99.90
23751;DHT22;12055;52.098;13.176;2022-09-09T06:37:05;18.70;99.90
23751;DHT22;12055;52.098;13.176;2022-09-09T06:39:31;18.90;99.90
23751;DHT22;12055;52.098;13.176;2022-09-09T06:41:57;18.90;99.90
23751;DHT22;12055;52.098;13.176;2022-09-09T06:44:23;18.90;99.90
23751;DHT22;12055;52.098;13.176;2022-09-09T06:46:51;18.90;99.90
23751;DHT22;12055;52.098;13.176;2022-09-09T06:49:17;18.90;99.90
23751;DHT22;12055;52.098;13.176;2022-09-09T06:51:42;18.90;99.90
23751;DHT22;12055;52.098;13.176;2022-09-09T06:54:09;19.10;99.90
23751;DHT22;12055;52.098;13.176;2022-09-09T06:56:37;19.30;99.90
23751;DHT22;12055;52.098;13.176;2022-09-09T06:59:05;19.40;99.90
23751;DHT22;12055;52.098;13.176;2022-09-09T07:01:35;19.40;99.90
23751;DHT22;12055;52.098;13.176;2022-09-09T07:04:02;19.30;99.90
23751;DHT22;12055;52.098;13.176;2022-09-09T07:06:31;19.20;99.90
23751;DHT22;12055;52.098;13.176;2022-09-09T07:08:59;19.00;99.90
23751;DHT22;12055;52.098;13.176;2022-09-09T07:11:28;18.90;99.90
23751;DHT22;12055;52.098;13.176;2022-09-09T07:13:54;18.90;99.90
23751;DHT22;12055;52.098;13.176;2022-09-09T07:16:21;19.00;99.90
23751;DHT22;12055;52.098;13.176;2022-09-09T07:18:51;19.20;99.90
23751;DHT22;12055;52.098;13.176;2022-09-09T07:21:17;19.70;99.90
23751;DHT22;12055;52.098;13.176;2022-09-09T07:23:43;20.00;99.90
23751;DHT22;12055;52.098;13.176;2022-09-09T07:26:19;20.30;99.90
23751;DHT22;12055;52.098;13.176;2022-09-09T07:28:46;20.50;99.90
23751;DHT22;12055;52.098;13.176;2022-09-09T07:31:24;20.50;99.90
23751;DHT22;12055;52.098;13.176;2022-09-09T07:33:49;20.50;99.90
23751;DHT22;12055;52.098;13.176;2022-09-09T07:36:18;20.70;99.90
23751;DHT22;12055;52.098;13.176;2022-09-09T07:38:47;20.90;99.90
23751;DHT22;12055;52.098;13.176;2022-09-09T07:41:16;21.40;99.90
23751;DHT22;12055;52.098;13.176;2022-09-09T07:43:44;21.70;99.90
23751;DHT22;12055;52.098;13.176;2022-09-09T07:46:10;21.50;99.90
23751;DHT22;12055;52.098;13.176;2022-09-09T07:48:38;21.50;99.90
23751;DHT22;12055;52.098;13.176;2022-09-09T07:51:13;21.50;99.90
23751;DHT22;12055;52.098;13.176;2022-09-09T07:53:42;21.30;99.90
23751;DHT22;12055;52.098;13.176;2022-09-09T07:56:11;20.90;99.90
23751;DHT22;12055;52.098;13.176;2022-09-09T07:58:37;20.60;99.90
23751;DHT22;12055;52.098;13.176;2022-09-09T08:01:08;20.50;99.90
23751;DHT22;12055;52.098;13.176;2022-09-09T08:03:35;20.40;99.90
23751;DHT22;12055;52.098;13.176;2022-09-09T08:06:03;20.10;99.90
23751;DHT22;12055;52.098;13.176;2022-09-09T08:08:29;20.00;99.90
23751;DHT22;12055;52.098;13.176;2022-09-09T08:11:05;20.10;99.90
23751;DHT22;12055;52.098;13.176;2022-09-09T08:13:33;20.10;99.90
23751;DHT22;12055;52.098;13.176;2022-09-09T08:16:10;20.20;99.90
23751;DHT22;12055;52.098;13.176;2022-09-09T08:18:37;20.40;99.90
23751;DHT22;12055;52.098;13.176;2022-09-09T08:21:12;20.50;99.90
23751;DHT22;12055;52.098;13.176;2022-09-09T08:23:41;20.70;99.90
23751;DHT22;12055;52.098;13.176;2022-09-09T08:26:13;20.90;99.90
23751;DHT22;12055;52.098;13.176;2022-09-09T08:28:39;21.00;99.90
23751;DHT22;12055;52.098;13.176;2022-09-09T08:31:07;21.20;99.90
23751;DHT22;12055;52.098;13.176;2022-09-09T08:33:32;21.50;99.90
23751;DHT22;12055;52.098;13.176;2022-09-09T08:35:58;22.10;99.90
23751;DHT22;12055;52.098;13.176;2022-09-09T08:38:24;22.60;99.90
23751;DHT22;12055;52.098;13.176;2022-09-09T08:40:52;23.10;99.90
23751;DHT22;12055;52.098;13.176;2022-09-09T08:43:24;23.60;99.90
23751;DHT22;12055;52.098;13.176;2022-09-09T08:45:58;23.50;99.90
23751;DHT22;12055;52.098;13.176;2022-09-09T08:48:44;23.80;99.90
23751;DHT22;12055;52.098;13.176;2022-09-09T08:51:13;24.10;99.90
23751;DHT22;12055;52.098;13.176;2022-09-09T08:53:45;24.00;99.90
23751;DHT22;12055;52.098;13.176;2022-09-09T08:56:14;23.90;99.90
23751;DHT22;12055;52.098;13.176;2022-09-09T08:58:50;23.90;99.90
23751;DHT22;12055;52.098;13.176;2022-09-09T09:01:35;24.00;99.90
23751;DHT22;12055;52.098;13.176;2022-09-09T09:09:51;24.40;99.90
23751;DHT22;12055;52.098;13.176;2022-09-09T09:12:23;24.50;99.90
23751;DHT22;12055;52.098;13.176;2022-09-09T09:14:50;23.90;99.90
23751;DHT22;12055;52.098;13.176;2022-09-09T09:17:20;24.00;99.90
23751;DHT22;12055;52.098;13.176;2022-09-09T09:19:47;24.30;99.90
23751;DHT22;12055;52.098;13.176;2022-09-09T09:22:45;24.50;99.90
23751;DHT22;12055;52.098;13.176;2022-09-09T09:25:18;24.40;99.90
23751;DHT22;12055;52.098;13.176;2022-09-09T09:27:57;24.20;99.90
23751;DHT22;12055;52.098;13.176;2022-09-09T09:30:31;24.40;99.90
23751;DHT22;12055;52.098;13.176;2022-09-09T09:33:11;24.50;99.90
23751;DHT22;12055;52.098;13.176;2022-09-09T09:35:40;24.40;99.90
23751;DHT22;12055;52.098;13.176;2022-09-09T09:38:26;24.80;99.90
23751;DHT22;12055;52.098;13.176;2022-09-09T09:40:55;25.00;99.90
23751;DHT22;12055;52.098;13.176;2022-09-09T09:43:35;25.00;99.90
23751;DHT22;12055;52.098;13.176;2022-09-09T09:46:04;25.00;99.90
23751;DHT22;12055;52.098;13.176;2022-09-09T09:48:30;25.10;99.90
23751;DHT22;12055;52.098;13.176;2022-09-09T09:51:01;25.30;99.90
23751;DHT22;12055;52.098;13.176;2022-09-09T09:53:33;25.70;99.90
23751;DHT22;12055;52.098;13.176;2022-09-09T09:56:01;25.70;99.90
23751;DHT22;12055;52.098;13.176;2022-09-09T09:58:31;25.20;99.90
23751;DHT22;12055;52.098;13.176;2022-09-09T10:00:59;25.30;99.90
23751;DHT22;12055;52.098;13.176;2022-09-09T10:03:34;25.30;99.90
23751;DHT22;12055;52.098;13.176;2022-09-09T10:06:03;25.20;99.90
23751;DHT22;12055;52.098;13.176;2022-09-09T10:08:29;25.30;99.90
23751;DHT22;12055;52.098;13.176;2022-09-09T10:11:05;25.40;99.90
23751;DHT22;12055;52.098;13.176;2022-09-09T10:18:59;25.40;99.90
23751;DHT22;12055;52.098;13.176;2022-09-09T10:21:51;25.60;99.90
23751;DHT22;12055;52.098;13.176;2022-09-09T10:27:29;25.80;99.90
23751;DHT22;12055;52.098;13.176;2022-09-09T10:30:12;25.90;99.90
23751;DHT22;12055;52.098;13.176;2022-09-09T10:33:11;26.00;99.90
23751;DHT22;12055;52.098;13.176;2022-09-09T10:35:54;26.30;99.90
23751;DHT22;12055;52.098;13.176;2022-09-09T10:38:39;26.00;99.90
23751;DHT22;12055;52.098;13.176;2022-09-09T10:55:37;25.80;99.90
23751;DHT22;12055;52.098;13.176;2022-09-09T10:58:05;26.10;99.90
23751;DHT22;12055;52.098;13.176;2022-09-09T11:00:48;26.30;99.90
23751;DHT22;12055;52.098;13.176;2022-09-09T11:03:26;25.90;99.90
23751;DHT22;12055;52.098;13.176;2022-09-09T11:06:00;25.90;99.90
23751;DHT22;12055;52.098;13.176;2022-09-09T11:08:30;26.40;99.90
23751;DHT22;12055;52.098;13.176;2022-09-09T11:13:56;26.70;99.90
23751;DHT22;12055;52.098;13.176;2022-09-09T11:16:46;26.80;99.90
23751;DHT22;12055;52.098;13.176;2022-09-09T11:19:35;26.80;99.90
23751;DHT22;12055;52.098;13.176;2022-09-09T11:22:03;27.00;99.90
23751;DHT22;12055;52.098;13.176;2022-09-09T11:24:40;27.10;99.90
23751;DHT22;12055;52.098;13.176;2022-09-09T11:27:15;26.80;99.90
23751;DHT22;12055;52.098;13.176;2022-09-09T11:35:54;26.90;99.90
23751;DHT22;12055;52.098;13.176;2022-09-09T11:38:46;26.90;99.90
23751;DHT22;12055;52.098;13.176;2022-09-09T11:41:13;26.90;99.90
23751;DHT22;12055;52.098;13.176;2022-09-09T11:46:10;26.80;99.90
23751;DHT22;12055;52.098;13.176;2022-09-09T11:48:42;26.40;99.90
23751;DHT22;12055;52.098;13.176;2022-09-09T11:51:27;26.10;99.90
23751;DHT22;12055;52.098;13.176;2022-09-09T11:56:43;26.30;99.90
23751;DHT22;12055;52.098;13.176;2022-09-09T11:59:29;26.70;99.90
23751;DHT22;12055;52.098;13.176;2022-09-09T12:01:58;27.20;99.90
23751;DHT22;12055;52.098;13.176;2022-09-09T12:09:27;28.00;99.90
23751;DHT22;12055;52.098;13.176;2022-09-09T12:12:04;28.00;99.90
23751;DHT22;12055;52.098;13.176;2022-09-09T12:17:50;27.70;99.90
23751;DHT22;12055;52.098;13.176;2022-09-09T12:20:34;28.20;99.90
23751;DHT22;12055;52.098;13.176;2022-09-09T12:23:17;28.20;99.90
23751;DHT22;12055;52.098;13.176;2022-09-09T12:26:14;28.50;99.90
23751;DHT22;12055;52.098;13.176;2022-09-09T12:39:58;27.00;99.90
23751;DHT22;12055;52.098;13.176;2022-09-09T12:42:25;27.70;99.90
23751;DHT22;12055;52.098;13.176;2022-09-09T12:45:01;28.10;99.90
23751;DHT22;12055;52.098;13.176;2022-09-09T12:47:51;27.90;99.90
23751;DHT22;12055;52.098;13.176;2022-09-09T12:50:25;27.20;99.90
23751;DHT22;12055;52.098;13.176;2022-09-09T12:53:12;26.40;99.90
23751;DHT22;12055;52.098;13.176;2022-09-09T12:55:53;25.90;99.90
23751;DHT22;12055;52.098;13.176;2022-09-09T12:58:20;25.40;99.90
23751;DHT22;12055;52.098;13.176;2022-09-09T13:00:53;25.30;99.90
23751;DHT22;12055;52.098;13.176;2022-09-09T13:03:22;25.00;99.90
23751;DHT22;12055;52.098;13.176;2022-09-09T13:05:48;24.90;99.90
23751;DHT22;12055;52.098;13.176;2022-09-09T13:08:14;24.60;99.90
23751;DHT22;12055;52.098;13.176;2022-09-09T13:10:46;24.40;99.90
23751;DHT22;12055;52.098;13.176;2022-09-09T13:13:27;24.20;99.90
23751;DHT22;12055;52.098;13.176;2022-09-09T13:15:57;24.10;99.90
23751;DHT22;12055;52.098;13.176;2022-09-09T13:18:30;24.10;99.90
23751;DHT22;12055;52.098;13.176;2022-09-09T13:20:57;24.20;99.90
23751;DHT22;12055;52.098;13.176;2022-09-09T13:23:27;24.10;99.90
23751;DHT22;12055;52.098;13.176;2022-09-09T13:25:57;24.10;99.90
23751;DHT22;12055;52.098;13.176;2022-09-09T13:28:25;24.10;99.90
23751;DHT22;12055;52.098;13.176;2022-09-09T13:31:02;24.00;99.90
23751;DHT22;12055;52.098;13.176;2022-09-09T13:33:36;23.80;99.90
23751;DHT22;12055;52.098;13.176;2022-09-09T13:36:07;23.40;99.90
23751;DHT22;12055;52.098;13.176;2022-09-09T13:38:37;23.10;99.90
23751;DHT22;12055;52.098;13.176;2022-09-09T13:41:08;22.70;99.90
23751;DHT22;12055;52.098;13.176;2022-09-09T13:43:45;22.60;99.90
23751;DHT22;12055;52.098;13.176;2022-09-09T13:46:35;22.50;99.90
23751;DHT22;12055;52.098;13.176;2022-09-09T13:49:18;22.60;99.90
23751;DHT22;12055;52.098;13.176;2022-09-09T13:51:47;22.70;99.90
23751;DHT22;12055;52.098;13.176;2022-09-09T13:54:15;22.60;99.90
23751;DHT22;12055;52.098;13.176;2022-09-09T13:56:42;22.60;99.90
23751;DHT22;12055;52.098;13.176;2022-09-09T13:59:16;22.60;99.90
23751;DHT22;12055;52.098;13.176;2022-09-09T14:01:44;22.60;99.90
23751;DHT22;12055;52.098;13.176;2022-09-09T14:04:09;22.70;99.90
23751;DHT22;12055;52.098;13.176;2022-09-09T14:06:36;22.90;99.90
23751;DHT22;12055;52.098;13.176;2022-09-09T14:09:03;23.40;99.90
23751;DHT22;12055;52.098;13.176;2022-09-09T14:11:29;23.90;99.90
23751;DHT22;12055;52.098;13.176;2022-09-09T14:13:54;24.30;99.90
23751;DHT22;12055;52.098;13.176;2022-09-09T14:16:21;24.80;99.90
23751;DHT22;12055;52.098;13.176;2022-09-09T14:18:47;25.20;99.90
23751;DHT22;12055;52.098;13.176;2022-09-09T14:21:12;25.30;99.90
23751;DHT22;12055;52.098;13.176;2022-09-09T14:23:38;25.90;99.90
23751;DHT22;12055;52.098;13.176;2022-09-09T14:26:05;27.10;99.90
23751;DHT22;12055;52.098;13.176;2022-09-09T14:28:31;27.90;99.90
23751;DHT22;12055;52.098;13.176;2022-09-09T14:30:59;28.10;99.90
23751;DHT22;12055;52.098;13.176;2022-09-09T14:33:26;28.60;99.90
23751;DHT22;12055;52.098;13.176;2022-09-09T14:35:58;28.60;99.90
23751;DHT22;12055;52.098;13.176;2022-09-09T14:38:24;28.80;99.90
23751;DHT22;12055;52.098;13.176;2022-09-09T14:40:50;29.50;99.90
23751;DHT22;12055;52.098;13.176;2022-09-09T14:43:15;30.30;99.90
23751;DHT22;12055;52.098;13.176;2022-09-09T14:45:41;31.30;99.90
23751;DHT22;12055;52.098;13.176;2022-09-09T14:48:06;31.60;99.90
23751;DHT22;12055;52.098;13.176;2022-09-09T14:50:32;31.00;99.90
23751;DHT22;12055;52.098;13.176;2022-09-09T14:53:00;30.00;99.90
23751;DHT22;12055;52.098;13.176;2022-09-09T14:55:25;28.70;99.90
23751;DHT22;12055;52.098;13.176;2022-09-09T14:57:53;27.70;99.90
23751;DHT22;12055;52.098;13.176;2022-09-09T15:00:19;27.10;99.90
23751;DHT22;12055;52.098;13.176;2022-09-09T15:02:45;26.50;99.90
23751;DHT22;12055;52.098;13.176;2022-09-09T15:05:10;26.30;99.90
23751;DHT22;12055;52.098;13.176;2022-09-09T15:07:36;26.20;99.90
23751;DHT22;12055;52.098;13.176;2022-09-09T15:10:05;26.00;99.90
23751;DHT22;12055;52.098;13.176;2022-09-09T15:12:34;25.70;99.90
23751;DHT22;12055;52.098;13.176;2022-09-09T15:15:00;25.40;99.90
23751;DHT22;12055;52.098;13.176;2022-09-09T15:17:25;25.50;99.90
23751;DHT22;12055;52.098;13.176;2022-09-09T15:19:52;25.70;99.90
23751;DHT22;12055;52.098;13.176;2022-09-09T15:22:17;26.40;99.90
23751;DHT22;12055;52.098;13.176;2022-09-09T15:24:44;27.20;99.90
23751;DHT22;12055;52.098;13.176;2022-09-09T15:27:09;27.10;99.90
23751;DHT22;12055;52.098;13.176;2022-09-09T15:29:35;26.80;99.90
23751;DHT22;12055;52.098;13.176;2022-09-09T15:32:00;26.40;99.90
23751;DHT22;12055;52.098;13.176;2022-09-09T15:34:26;26.20;99.90
23751;DHT22;12055;52.098;13.176;2022-09-09T15:36:51;26.60;99.90
23751;DHT22;12055;52.098;13.176;2022-09-09T15:39:17;27.60;99.90
23751;DHT22;12055;52.098;13.176;2022-09-09T15:41:44;28.50;99.90
23751;DHT22;12055;52.098;13.176;2022-09-09T15:44:11;28.70;99.90
23751;DHT22;12055;52.098;13.176;2022-09-09T15:46:42;28.50;99.90
23751;DHT22;12055;52.098;13.176;2022-09-09T15:49:11;28.60;99.90
23751;DHT22;12055;52.098;13.176;2022-09-09T15:51:45;28.70;99.90
23751;DHT22;12055;52.098;13.176;2022-09-09T15:54:13;28.80;99.90
23751;DHT22;12055;52.098;13.176;2022-09-09T15:56:40;28.00;99.90
23751;DHT22;12055;52.098;13.176;2022-09-09T15:59:06;27.10;99.90
23751;DHT22;12055;52.098;13.176;2022-09-09T16:01:32;26.20;99.90
23751;DHT22;12055;52.098;13.176;2022-09-09T16:03:59;25.50;99.90
23751;DHT22;12055;52.098;13.176;2022-09-09T16:06:26;24.90;99.90
23751;DHT22;12055;52.098;13.176;2022-09-09T16:08:54;24.40;99.90
23751;DHT22;12055;52.098;13.176;2022-09-09T16:11:22;24.00;99.90
23751;DHT22;12055;52.098;13.176;2022-09-09T16:13:50;23.60;99.90
23751;DHT22;12055;52.098;13.176;2022-09-09T16:16:17;23.20;99.90
23751;DHT22;12055;52.098;13.176;2022-09-09T16:18:47;22.80;99.90
23751;DHT22;12055;52.098;13.176;2022-09-09T16:21:15;22.50;99.90
23751;DHT22;12055;52.098;13.176;2022-09-09T16:23:41;22.10;99.90
23751;DHT22;12055;52.098;13.176;2022-09-09T16:26:08;21.70;99.90
23751;DHT22;12055;52.098;13.176;2022-09-09T16:28:35;21.30;99.90
23751;DHT22;12055;52.098;13.176;2022-09-09T16:31:04;20.80;99.90
23751;DHT22;12055;52.098;13.176;2022-09-09T16:33:30;20.50;99.90
23751;DHT22;12055;52.098;13.176;2022-09-09T16:35:55;20.40;99.90
23751;DHT22;12055;52.098;13.176;2022-09-09T16:38:21;20.60;99.90
23751;DHT22;12055;52.098;13.176;2022-09-09T16:40:46;20.90;99.90
23751;DHT22;12055;52.098;13.176;2022-09-09T16:43:13;21.40;99.90
23751;DHT22;12055;52.098;13.176;2022-09-09T16:45:43;21.70;99.90
23751;DHT22;12055;52.098;13.176;2022-09-09T16:48:08;22.10;99.90
23751;DHT22;12055;52.098;13.176;2022-09-09T16:50:34;22.70;99.90
23751;DHT22;12055;52.098;13.176;2022-09-09T16:52:59;22.60;99.90
23751;DHT22;12055;52.098;13.176;2022-09-09T16:55:26;22.40;99.90
23751;DHT22;12055;52.098;13.176;2022-09-09T16:57:51;22.30;99.90
23751;DHT22;12055;52.098;13.176;2022-09-09T17:00:17;22.50;99.90
23751;DHT22;12055;52.098;13.176;2022-09-09T17:02:43;22.50;99.90
23751;DHT22;12055;52.098;13.176;2022-09-09T17:05:10;21.90;99.90
23751;DHT22;12055;52.098;13.176;2022-09-09T17:07:36;21.10;99.90
23751;DHT22;12055;52.098;13.176;2022-09-09T17:10:01;20.40;99.90